Long Boat Key, Florida
Current Conditions -  °F | °C
As of 3:53 AM on Monday 20 Oct 2014 (Local Time) from KSRQ Reporting Station
Clear Clear  
Wind Chill: 66°   Ceiling: Unl
Heat Index: 66°   Visibility: 10mi
Dew Point: 63°   Wind: 6mph
Humidity: 90%   Direction: 80°E
Pressure: 29.99"   Gusts: NA
Location:  27.3837°N, 82.6347°W
Report Text: KSRQ 200753Z 08005KT 10SM CLR 19/17 A2999 RMK AO2 SLP155 T01890172
Loading
Personal Weather Stations






























Interactive Weather Map
Tropical Storm Tracking
New forecast layout! Learn more

10-Day Weather Forecast

Advertisements
Track Severe Weather on mobile